KLCQ

Lake City Gateway Airport

Lake City, Florida, USA
METAR KLCQ 200055Z AUTO 00000KT 10SM CLR 04/M01 A3028 RMK AO2
Observed Flight Rules
Jan-20 @ 00:55 UTC (27 minutes ago) Visual Flight Rules
Wind Visibility Clouds
Calm 10 miles
  • Clear skies
Temperatures Readings
Current 4°C / 39°F
Dewpoint -1°C / 30°F
Humidity 70%
Altimeter 30.28" Hg
Pressure 1025 hPa
Elevation 61
METAR KLCQ 200055Z AUTO 00000KT 10SM CLR 04/M01 A3028 RMK AO2
Observed Flight Rules
Jan-20 @ 00:55 UTC
(27 minutes ago)
VFR
Wind Visibility
Calm 10 miles
Clouds
  • Clear skies
Temperature Dewpoint
4°C / 39°F -1°C / 30°F
Humidity Altimeter Pressure
70% 30.28" Hg 1025 hPa